This is the latest recevied weather packets stored in our database for station/object SALIDA. If no packets are shown the sender has not sent any weather packets the latest 10 day(s).
| Time | Temp. | Humidity | Pressure | Rain* | Wind** | Luminosity | Snow |
|---|---|---|---|---|---|---|---|
| 1777508198 | 13.89° C | 34% | 1006.2 hPa | 0 mm | - | - | - |
| 1777507298 | 14.44° C | 32% | 1006 hPa | 0 mm | - | - | - |
| 1777506398 | 15° C | 32% | 1005.7 hPa | 0 mm | - | - | - |
| 1777505498 | 15.56° C | 29% | 1005.7 hPa | 0 mm | - | - | - |
| 1777504598 | 15.56° C | 29% | 1005.5 hPa | 0 mm | - | - | - |
| 1777503698 | 15.56° C | 28% | 1005.3 hPa | 0 mm | - | - | - |
| 1777502798 | 15° C | 29% | 1005.4 hPa | 0 mm | - | - | - |
| 1777501898 | 13.89° C | 32% | 1005.5 hPa | 0 mm | - | - | - |
| 1777500998 | 14.44° C | 32% | 1005.3 hPa | 0 mm | - | - | - |
| 1777500098 | 13.33° C | 34% | 1005.7 hPa | 0 mm | - | - | - |
| 1777499198 | 14.44° C | 32% | 1005.6 hPa | 0 mm | - | - | - |
| 1777498298 | 14.44° C | 33% | 1006 hPa | 0 mm | - | - | - |
| 1777497398 | 16.11° C | 27% | 1006.2 hPa | 0 mm | - | - | - |
| 1777496498 | 15° C | 22% | 1006.4 hPa | 0 mm | - | - | - |
| 1777495598 | 14.44° C | 25% | 1006.6 hPa | 0 mm | - | - | - |
| 1777494703 | 14.44° C | 26% | 1006.6 hPa | 0 mm | - | - | - |
| 1777494698 | 14.44° C | 26% | 1006.6 hPa | 0 mm | - | - | - |
| 1777493798 | 15° C | 24% | 1006.3 hPa | 0 mm | - | - | - |
| 1777492898 | 16.11° C | 24% | 1006.5 hPa | 0 mm | - | - | - |
| 1777491998 | 15° C | 28% | 1006.7 hPa | 0 mm | - | - | - |
| 1777491098 | 14.44° C | 28% | 1007 hPa | 0 mm | - | - | - |
| 1777490199 | 14.44° C | 30% | 1007.1 hPa | 0 mm | - | - | - |
| 1777489298 | 13.89° C | 33% | 1007.2 hPa | 0 mm | - | - | - |
| 1777488398 | 13.33° C | 32% | 1007.5 hPa | 0 mm | - | - | - |
| 1777487499 | 13.89° C | 35% | 1007.4 hPa | 0 mm | - | - | - |
* Rain latest hour (hover to see other rain measurements)
** Current wind speed in m/s (hover to see current wind gust speed)